Time;durP1;ratioP1;P1;durP2;ratioP2;P2;SDS_P1;SDS_P2;PMS_P1;PMS_P2;Temp;Humidity;BMP_temperature;BMP_pressure;BME280_temperature;BME280_humidity;BME280_pressure;Samples;Min_cycle;Max_cycle;Signal;HPM_P1;HPM_P2
2021/06/27 00:03:47;;;;;;;18.02;14.57;;;18.80;59.40;;;;;;4912087;28;20032;-86
2021/06/27 00:06:20;;;;;;;19.52;16.05;;;18.70;59.40;;;;;;4962066;28;20043;-84
2021/06/27 00:09:03;;;;;;;16.00;14.35;;;18.60;60.20;;;;;;4896743;28;20031;-85
2021/06/27 00:12:00;;;;;;;16.70;14.57;;;18.40;61.60;;;;;;4854216;28;20031;-87
2021/06/27 00:14:58;;;;;;;;;;;;;;;;;;;;;
2021/06/27 00:17:44;;;;;;;17.38;15.40;;;18.40;61.40;;;;;;4914704;28;20035;-85
2021/06/27 00:20:42;;;;;;;13.27;11.82;;;18.50;60.00;;;;;;4902201;28;20638;-85
2021/06/27 00:26:36;;;;;;;16.67;14.63;;;18.40;60.00;;;;;;4902816;28;20500;-85
2021/06/27 00:29:14;;;;;;;15.55;13.80;;;18.20;60.80;;;;;;4904608;28;20032;-85
2021/06/27 00:31:50;;;;;;;16.88;14.50;;;17.90;63.10;;;;;;4903187;28;20036;-85
2021/06/27 00:34:16;;;;;;;16.20;14.30;;;17.90;63.10;;;;;;4909287;28;20043;-85
2021/06/27 00:36:41;;;;;;;15.65;13.98;;;17.80;63.30;;;;;;4916362;28;20048;-84
2021/06/27 00:39:07;;;;;;;16.10;14.07;;;17.60;66.20;;;;;;4925230;28;20035;-85
2021/06/27 00:41:32;;;;;;;15.48;13.45;;;17.60;67.00;;;;;;4929770;28;20040;-85
2021/06/27 00:43:59;;;;;;;16.80;14.15;;;17.60;67.60;;;;;;4950043;28;20034;-84
2021/06/27 00:46:24;;;;;;;14.05;12.30;;;17.80;64.00;;;;;;4932602;28;20036;-84
2021/06/27 00:48:53;;;;;;;12.23;10.90;;;17.90;62.50;;;;;;4910876;28;20019;-84
2021/06/27 00:51:20;;;;;;;13.88;12.32;;;17.90;62.30;;;;;;4933826;28;20063;-84
2021/06/27 00:53:46;;;;;;;16.55;14.13;;;17.80;62.00;;;;;;4937700;28;20032;-84
2021/06/27 00:56:11;;;;;;;15.25;13.75;;;17.80;61.80;;;;;;4907124;28;20040;-84
2021/06/27 00:58:37;;;;;;;16.27;14.15;;;17.80;62.10;;;;;;4921435;28;20435;-84
2021/06/27 01:01:04;;;;;;;18.02;15.70;;;17.60;62.60;;;;;;4945772;28;20408;-84
2021/06/27 01:03:30;;;;;;;17.85;15.40;;;17.50;63.70;;;;;;4928980;28;20563;-84
2021/06/27 01:05:56;;;;;;;17.85;14.95;;;17.30;64.40;;;;;;4977799;28;20039;-84
2021/06/27 01:08:21;;;;;;;19.05;15.57;;;17.20;65.60;;;;;;4985202;28;20040;-84
2021/06/27 01:10:47;;;;;;;19.25;15.38;;;17.00;68.10;;;;;;4901035;28;20035;-84
2021/06/27 01:13:21;;;;;;;25.15;15.80;;;16.90;69.40;;;;;;4909609;28;20039;-84
2021/06/27 01:15:47;;;;;;;17.65;15.77;;;17.00;70.50;;;;;;4976607;28;20032;-83
2021/06/27 01:18:12;;;;;;;15.52;13.95;;;17.00;72.30;;;;;;4920617;28;20043;-84
2021/06/27 01:20:39;;;;;;;16.42;14.82;;;17.00;72.10;;;;;;4889440;28;20105;-83
2021/06/27 01:23:15;;;;;;;16.58;14.50;;;17.10;72.10;;;;;;4923717;28;20402;-83
2021/06/27 01:25:42;;;;;;;16.77;14.95;;;17.10;77.60;;;;;;4936526;28;20539;-83
2021/06/27 01:28:08;;;;;;;16.73;14.85;;;17.10;77.60;;;;;;4971635;28;20075;-83
2021/06/27 01:30:34;;;;;;;17.30;15.60;;;17.00;72.40;;;;;;4923925;28;20127;-83
2021/06/27 01:33:01;;;;;;;16.85;15.02;;;16.90;74.80;;;;;;4904313;28;20036;-83
2021/06/27 01:35:27;;;;;;;16.63;14.93;;;16.90;72.30;;;;;;4971256;28;20113;-83
2021/06/27 01:37:54;;;;;;;18.23;15.98;;;17.00;75.50;;;;;;4988427;28;20034;-82
2021/06/27 01:40:21;;;;;;;17.73;15.85;;;17.00;71.30;;;;;;4976386;28;20171;-83
2021/06/27 01:42:47;;;;;;;20.23;14.68;;;16.90;74.80;;;;;;4943004;28;20040;-82
2021/06/27 01:45:15;;;;;;;20.13;14.90;;;17.00;74.80;;;;;;4949409;28;20048;-82
2021/06/27 01:47:41;;;;;;;18.30;15.55;;;17.00;69.30;;;;;;4917301;28;20047;-82
2021/06/27 01:50:07;;;;;;;18.92;15.07;;;16.80;70.70;;;;;;4924090;28;20499;-83
2021/06/27 01:52:33;;;;;;;19.88;15.57;;;16.70;73.50;;;;;;4934351;28;20226;-83
2021/06/27 01:54:59;;;;;;;23.42;15.13;;;16.50;74.50;;;;;;4985187;28;20514;-82
2021/06/27 01:57:24;;;;;;;17.63;15.77;;;16.40;74.80;;;;;;4926727;28;20142;-83
2021/06/27 01:59:50;;;;;;;18.15;15.57;;;16.40;76.80;;;;;;5001266;28;20119;-82
2021/06/27 02:02:16;;;;;;;18.27;15.35;;;16.40;77.50;;;;;;4935259;28;20132;-82
2021/06/27 02:04:42;;;;;;;19.70;14.85;;;16.40;79.60;;;;;;4913923;28;20043;-84
2021/06/27 02:07:08;;;;;;;17.02;14.98;;;16.30;82.20;;;;;;4940704;28;20039;-83
2021/06/27 02:09:33;;;;;;;20.58;14.57;;;16.30;80.80;;;;;;4891809;28;20032;-82
2021/06/27 02:11:59;;;;;;;17.83;15.27;;;16.40;86.40;;;;;;4917108;28;20033;-83
2021/06/27 02:14:24;;;;;;;19.00;15.80;;;16.30;83.90;;;;;;4941568;28;20035;-80
2021/06/27 02:16:50;;;;;;;20.77;15.45;;;16.30;81.70;;;;;;4916204;28;20036;-82
2021/06/27 02:19:16;;;;;;;19.50;15.23;;;16.20;81.50;;;;;;4961654;28;20557;-79
2021/06/27 02:21:41;;;;;;;18.00;14.95;;;16.10;83.20;;;;;;4929296;28;20051;-80
2021/06/27 02:24:07;;;;;;;19.33;15.55;;;16.10;83.70;;;;;;4918445;28;20123;-79
2021/06/27 02:26:33;;;;;;;16.17;14.45;;;16.20;83.50;;;;;;4927570;28;20650;-80
2021/06/27 02:28:59;;;;;;;20.15;16.00;;;16.20;86.70;;;;;;4888847;28;20042;-79
2021/06/27 02:31:27;;;;;;;18.38;16.25;;;16.30;84.40;;;;;;4972196;28;20035;-79
2021/06/27 02:33:52;;;;;;;16.83;15.07;;;16.10;86.50;;;;;;4910610;28;20032;-79
2021/06/27 02:36:18;;;;;;;17.08;15.25;;;16.10;87.60;;;;;;4914504;28;20415;-79
2021/06/27 02:38:43;;;;;;;17.20;15.07;;;16.20;87.50;;;;;;4909486;28;20431;-80
2021/06/27 02:41:09;;;;;;;17.00;15.20;;;16.30;83.80;;;;;;4925457;28;20396;-80
2021/06/27 02:43:35;;;;;;;17.83;13.88;;;16.40;80.70;;;;;;4923870;28;20039;-80
2021/06/27 02:46:00;;;;;;;19.17;15.35;;;16.30;81.10;;;;;;4912579;28;20642;-80
2021/06/27 02:48:26;;;;;;;19.15;15.52;;;16.30;83.50;;;;;;4973527;28;20036;-80
2021/06/27 02:50:51;;;;;;;17.27;15.05;;;16.10;81.10;;;;;;4993874;28;20028;-80
2021/06/27 02:53:17;;;;;;;16.85;15.15;;;15.90;87.40;;;;;;4919267;28;20059;-79
2021/06/27 02:55:43;;;;;;;22.80;16.10;;;15.90;87.80;;;;;;4925104;28;20069;-80
2021/06/27 02:58:08;;;;;;;18.60;16.42;;;15.80;87.80;;;;;;4914136;28;20094;-80
2021/06/27 03:00:34;;;;;;;18.67;15.45;;;15.80;89.50;;;;;;4988702;28;20028;-79
2021/06/27 03:03:00;;;;;;;19.63;16.58;;;15.90;86.10;;;;;;4904014;28;20036;-80
2021/06/27 03:05:25;;;;;;;22.30;16.55;;;15.90;84.60;;;;;;4912354;28;20447;-80
2021/06/27 03:07:51;;;;;;;20.73;16.80;;;15.80;82.80;;;;;;4904332;28;20057;-80
2021/06/27 03:10:17;;;;;;;20.23;16.60;;;15.70;85.10;;;;;;4990505;28;20040;-79
2021/06/27 03:12:44;;;;;;;17.63;15.65;;;15.60;90.90;;;;;;4929110;28;20036;-79
2021/06/27 03:15:10;;;;;;;17.90;16.05;;;15.60;90.20;;;;;;4985115;28;20123;-79
2021/06/27 03:17:36;;;;;;;20.00;17.02;;;15.80;86.20;;;;;;4922094;28;20090;-81
2021/06/27 03:20:02;;;;;;;19.73;15.70;;;15.80;90.80;;;;;;4931464;28;20024;-79
2021/06/27 03:22:29;;;;;;;17.92;15.40;;;15.60;86.60;;;;;;4918183;28;20043;-80
2021/06/27 03:24:54;;;;;;;22.75;16.25;;;15.50;89.00;;;;;;4949565;28;20028;-79
2021/06/27 03:27:20;;;;;;;21.23;15.52;;;15.50;89.70;;;;;;4982642;28;20036;-79
2021/06/27 03:29:46;;;;;;;20.90;16.38;;;15.50;90.40;;;;;;4949102;28;20039;-79
2021/06/27 03:32:12;;;;;;;21.40;16.15;;;15.50;87.40;;;;;;4905685;28;20130;-79
2021/06/27 03:34:37;;;;;;;16.88;13.32;;;15.30;89.00;;;;;;4916915;28;20539;-78
2021/06/27 03:37:03;;;;;;;17.70;15.50;;;15.50;90.70;;;;;;4903658;28;20506;-79
2021/06/27 03:39:28;;;;;;;17.67;14.85;;;15.50;89.10;;;;;;4920465;28;20032;-80
2021/06/27 03:41:54;;;;;;;16.60;14.80;;;15.50;89.30;;;;;;4917047;28;20030;-79
2021/06/27 03:44:24;;;;;;;19.30;15.40;;;15.80;86.40;;;;;;4942341;28;20028;-79
2021/06/27 03:46:49;;;;;;;18.33;14.45;;;15.80;90.50;;;;;;4950228;28;20045;-78
2021/06/27 03:49:15;;;;;;;20.40;16.08;;;15.80;84.50;;;;;;4911067;28;20036;-80
2021/06/27 03:51:41;;;;;;;18.25;15.07;;;15.70;84.90;;;;;;4901258;28;20125;-78
2021/06/27 03:54:06;;;;;;;18.55;15.30;;;15.70;84.20;;;;;;4941957;28;20074;-79
2021/06/27 03:56:32;;;;;;;22.95;16.38;;;15.70;90.50;;;;;;4938645;28;20092;-79
2021/06/27 03:58:58;;;;;;;18.77;15.68;;;15.50;89.20;;;;;;4976934;28;20024;-79
2021/06/27 04:01:23;;;;;;;22.30;17.05;;;15.40;88.40;;;;;;4912978;28;20387;-79
2021/06/27 04:03:49;;;;;;;21.67;16.77;;;15.50;90.90;;;;;;4975795;28;20052;-79
2021/06/27 04:06:14;;;;;;;18.70;16.00;;;15.60;90.10;;;;;;4941253;28;20040;-79
2021/06/27 04:08:40;;;;;;;18.00;16.10;;;15.70;89.90;;;;;;4913819;28;20036;-79
2021/06/27 04:11:05;;;;;;;18.80;15.75;;;15.80;89.60;;;;;;4896443;28;20031;-79
2021/06/27 04:13:32;;;;;;;16.83;14.77;;;16.00;90.80;;;;;;4923617;28;20429;-79
2021/06/27 04:15:58;;;;;;;23.33;14.82;;;16.20;87.90;;;;;;4909495;28;20028;-78
2021/06/27 04:18:24;;;;;;;18.33;14.35;;;16.40;85.70;;;;;;4934562;28;20154;-79
2021/06/27 04:20:49;;;;;;;15.63;12.25;;;16.50;84.70;;;;;;4910962;28;20058;-79
2021/06/27 04:23:15;;;;;;;20.40;15.10;;;16.60;85.10;;;;;;4944979;28;20031;-79
2021/06/27 04:25:41;;;;;;;19.95;14.18;;;16.70;84.90;;;;;;4935203;28;20024;-80
2021/06/27 04:28:07;;;;;;;16.77;14.35;;;17.00;85.70;;;;;;4985990;28;20048;-79
2021/06/27 04:30:33;;;;;;;16.63;14.70;;;16.90;87.30;;;;;;4984997;28;20036;-81
2021/06/27 04:32:58;;;;;;;16.88;14.43;;;17.00;85.50;;;;;;4979553;28;20047;-79
2021/06/27 04:35:24;;;;;;;13.80;12.38;;;17.20;85.30;;;;;;4974542;28;20036;-79
2021/06/27 04:37:50;;;;;;;18.52;14.20;;;17.30;84.50;;;;;;4916598;28;20398;-78
2021/06/27 04:40:15;;;;;;;15.25;13.30;;;17.40;86.70;;;;;;4916769;28;20032;-79
2021/06/27 04:42:41;;;;;;;18.88;13.32;;;17.60;86.70;;;;;;4927319;28;20039;-79
2021/06/27 04:45:07;;;;;;;18.52;13.95;;;17.80;86.20;;;;;;4952644;28;20030;-79
2021/06/27 04:47:34;;;;;;;14.98;13.30;;;18.00;85.40;;;;;;4935889;28;20043;-78
2021/06/27 04:49:59;;;;;;;19.13;13.40;;;18.10;84.70;;;;;;4949482;28;20029;-79
2021/06/27 04:52:25;;;;;;;15.25;12.65;;;18.20;84.20;;;;;;4988978;28;20042;-78
2021/06/27 04:54:51;;;;;;;15.90;12.80;;;18.30;83.10;;;;;;4925807;28;20039;-79
2021/06/27 04:57:17;;;;;;;18.05;13.82;;;18.50;82.70;;;;;;4970906;28;20559;-78
2021/06/27 04:59:42;;;;;;;15.70;12.02;;;18.50;83.60;;;;;;4935322;28;20032;-78
2021/06/27 05:02:08;;;;;;;19.08;12.82;;;18.60;82.60;;;;;;4925755;28;20036;-78
2021/06/27 05:04:33;;;;;;;19.85;13.93;;;18.70;82.40;;;;;;4908824;28;20137;-79
2021/06/27 05:06:59;;;;;;;17.00;13.52;;;18.70;82.50;;;;;;4979991;28;20469;-79
2021/06/27 05:09:24;;;;;;;17.20;13.18;;;18.80;82.70;;;;;;4973373;28;20492;-79
2021/06/27 05:11:50;;;;;;;16.40;12.43;;;18.90;83.20;;;;;;4979290;28;20083;-78
2021/06/27 05:14:15;;;;;;;16.02;12.32;;;18.90;84.00;;;;;;4922706;28;20078;-78
2021/06/27 05:16:41;;;;;;;18.63;12.85;;;19.00;84.20;;;;;;4901165;28;20033;-78
2021/06/27 05:19:07;;;;;;;15.13;12.77;;;19.10;83.70;;;;;;4908050;28;20028;-79
2021/06/27 05:21:33;;;;;;;14.25;12.25;;;19.20;84.10;;;;;;4924211;28;20039;-78
2021/06/27 05:23:58;;;;;;;16.98;12.50;;;19.20;82.60;;;;;;4924837;28;20028;-79
2021/06/27 05:26:24;;;;;;;17.13;12.40;;;19.20;84.40;;;;;;4991768;28;20060;-79
2021/06/27 05:28:49;;;;;;;13.45;11.98;;;19.30;85.10;;;;;;4977810;28;20020;-78
2021/06/27 05:31:15;;;;;;;14.23;12.15;;;19.40;85.00;;;;;;4924640;28;20032;-78
2021/06/27 05:33:41;;;;;;;13.40;12.00;;;19.50;84.60;;;;;;4932473;28;20036;-79
2021/06/27 05:36:06;;;;;;;14.35;12.85;;;19.50;84.40;;;;;;4911449;28;20385;-78
2021/06/27 05:38:32;;;;;;;13.85;12.30;;;19.50;84.20;;;;;;4984951;28;20032;-78
2021/06/27 05:40:58;;;;;;;17.63;12.82;;;19.60;84.80;;;;;;4935428;28;20392;-79
2021/06/27 05:43:23;;;;;;;14.57;11.18;;;19.80;85.60;;;;;;4972788;28;20023;-79
2021/06/27 05:45:49;;;;;;;13.00;11.48;;;19.90;84.70;;;;;;4934461;28;20032;-78
2021/06/27 05:48:14;;;;;;;14.88;11.98;;;20.10;84.70;;;;;;4937585;28;20042;-79
2021/06/27 05:50:40;;;;;;;14.13;11.40;;;20.10;85.10;;;;;;4923688;28;20040;-79
2021/06/27 05:53:05;;;;;;;14.00;12.07;;;20.30;84.80;;;;;;4928417;28;20399;-79
2021/06/27 05:55:31;;;;;;;16.83;13.07;;;20.40;84.60;;;;;;4950513;28;20094;-79
2021/06/27 05:57:56;;;;;;;12.82;11.38;;;20.60;83.80;;;;;;4963835;28;20044;-79
2021/06/27 06:00:22;;;;;;;13.75;11.15;;;20.80;83.70;;;;;;4913028;28;20119;-79
2021/06/27 06:02:49;;;;;;;12.10;10.68;;;21.10;84.10;;;;;;4897985;28;20028;-81
2021/06/27 06:05:15;;;;;;;13.50;12.05;;;21.30;83.20;;;;;;4918798;28;20035;-80
2021/06/27 06:07:40;;;;;;;14.00;11.35;;;21.60;83.90;;;;;;4913462;28;20097;-78
2021/06/27 06:10:07;;;;;;;12.30;10.75;;;21.80;83.90;;;;;;4905433;28;20032;-80
2021/06/27 06:12:32;;;;;;;11.90;10.65;;;22.10;83.20;;;;;;4917765;28;20623;-81
2021/06/27 06:14:58;;;;;;;16.45;11.57;;;22.40;82.80;;;;;;4927600;28;20115;-81
2021/06/27 06:17:23;;;;;;;12.25;10.70;;;22.70;82.90;;;;;;4921618;28;20039;-80
2021/06/27 06:19:53;;;;;;;11.23;10.02;;;23.10;82.70;;;;;;4975510;28;20028;-80
2021/06/27 06:22:19;;;;;;;11.20;10.07;;;23.20;82.10;;;;;;4927656;28;20042;-81
2021/06/27 06:24:46;;;;;;;11.68;10.43;;;23.50;81.60;;;;;;4933549;28;20032;-80
2021/06/27 06:27:11;;;;;;;12.43;9.32;;;23.80;80.70;;;;;;4975650;28;20036;-81
2021/06/27 06:29:37;;;;;;;13.73;9.85;;;24.00;80.00;;;;;;4943068;28;20025;-81
2021/06/27 06:32:02;;;;;;;10.38;9.30;;;24.40;79.80;;;;;;4944157;28;20032;-81
2021/06/27 06:34:28;;;;;;;10.50;8.98;;;24.50;78.20;;;;;;4927959;28;20028;-81
2021/06/27 06:36:53;;;;;;;17.40;9.55;;;24.70;77.60;;;;;;4895184;28;20047;-81
2021/06/27 06:39:19;;;;;;;14.82;9.43;;;25.00;77.20;;;;;;4974075;28;20028;-81
2021/06/27 06:41:44;;;;;;;10.15;8.38;;;25.20;76.70;;;;;;4927470;28;20032;-81
2021/06/27 06:44:10;;;;;;;10.07;9.00;;;25.40;75.00;;;;;;4892854;28;20573;-81
2021/06/27 06:46:36;;;;;;;11.02;8.32;;;25.60;75.30;;;;;;4969288;28;20072;-81
2021/06/27 06:49:01;;;;;;;10.13;7.75;;;26.00;74.70;;;;;;4928850;28;20059;-82
2021/06/27 06:51:27;;;;;;;9.43;8.23;;;26.20;73.20;;;;;;4965417;28;20042;-82
2021/06/27 06:53:52;;;;;;;9.50;7.93;;;26.50;72.60;;;;;;4976311;28;20157;-82
2021/06/27 06:56:19;;;;;;;9.60;8.70;;;26.70;71.70;;;;;;4983905;28;20060;-81
2021/06/27 06:58:45;;;;;;;9.82;8.50;;;27.10;71.40;;;;;;4938396;28;20032;-83
2021/06/27 07:01:10;;;;;;;8.55;7.75;;;27.40;70.00;;;;;;4949733;28;20230;-83
2021/06/27 07:03:36;;;;;;;8.98;8.07;;;27.50;68.50;;;;;;4974223;28;20027;-84
2021/06/27 07:06:02;;;;;;;8.57;7.65;;;27.60;69.50;;;;;;4900868;28;20059;-84
2021/06/27 07:08:28;;;;;;;9.95;7.65;;;27.80;68.80;;;;;;4971300;28;20036;-82
2021/06/27 07:10:56;;;;;;;10.57;7.63;;;28.10;67.60;;;;;;4919820;28;20090;-82
2021/06/27 07:13:21;;;;;;;8.23;7.53;;;28.30;66.80;;;;;;4976255;28;20036;-82
2021/06/27 07:15:48;;;;;;;8.18;7.47;;;28.60;66.50;;;;;;4926026;28;20067;-82
2021/06/27 07:18:13;;;;;;;9.68;7.90;;;28.80;65.60;;;;;;4906581;28;20843;-83
2021/06/27 07:20:39;;;;;;;8.75;7.60;;;29.00;65.50;;;;;;4896413;28;20036;-83
2021/06/27 07:23:04;;;;;;;9.52;7.80;;;29.30;64.70;;;;;;4903170;28;20086;-83
2021/06/27 07:25:30;;;;;;;8.18;7.35;;;29.60;64.00;;;;;;4930504;28;20029;-83
2021/06/27 07:27:55;;;;;;;9.07;7.72;;;29.80;62.90;;;;;;4895298;28;20039;-84
2021/06/27 07:30:21;;;;;;;8.55;7.65;;;30.00;62.30;;;;;;4995001;28;20044;-85
2021/06/27 07:32:47;;;;;;;9.32;7.45;;;30.20;61.80;;;;;;4934731;28;20034;-85
2021/06/27 07:35:13;;;;;;;8.57;7.85;;;30.30;60.70;;;;;;4925589;28;20392;-85
2021/06/27 07:37:38;;;;;;;10.68;7.47;;;30.20;60.70;;;;;;4989557;28;20032;-86
2021/06/27 07:40:04;;;;;;;8.98;6.88;;;30.40;59.70;;;;;;5009437;28;20030;-85
2021/06/27 07:42:30;;;;;;;7.13;6.43;;;30.50;59.00;;;;;;4945006;28;20038;-86
2021/06/27 07:44:55;;;;;;;9.10;7.57;;;30.80;59.20;;;;;;4919787;28;20111;-85
2021/06/27 07:47:56;;;;;;;8.60;7.07;;;30.90;59.20;;;;;;4985461;28;20032;-85
2021/06/27 07:50:21;;;;;;;7.97;6.47;;;31.50;58.30;;;;;;4930530;28;20040;-85
2021/06/27 07:52:47;;;;;;;6.95;6.18;;;31.80;57.10;;;;;;4911310;28;20150;-84
2021/06/27 07:55:12;;;;;;;6.15;5.60;;;32.00;57.00;;;;;;4938594;28;20115;-82
2021/06/27 07:57:39;;;;;;;6.57;5.93;;;32.10;56.30;;;;;;4939003;28;20119;-82
2021/06/27 08:00:05;;;;;;;6.63;5.95;;;32.40;56.10;;;;;;4966653;28;20081;-82
2021/06/27 08:02:31;;;;;;;7.25;6.47;;;32.70;55.20;;;;;;4928033;28;20036;-80
2021/06/27 08:04:56;;;;;;;8.00;7.30;;;33.00;53.70;;;;;;4978220;28;20169;-80
2021/06/27 08:07:22;;;;;;;7.20;6.60;;;33.30;52.80;;;;;;4995579;28;20393;-80
2021/06/27 08:09:47;;;;;;;6.20;5.70;;;33.50;51.90;;;;;;4907923;28;20028;-80
2021/06/27 08:12:13;;;;;;;7.15;6.55;;;33.60;52.00;;;;;;4934041;28;20044;-80
2021/06/27 08:14:39;;;;;;;9.93;6.97;;;33.60;52.30;;;;;;4908186;28;20373;-79
2021/06/27 08:17:06;;;;;;;7.15;6.28;;;33.80;51.50;;;;;;4990712;28;20040;-78
2021/06/27 08:19:32;;;;;;;7.20;6.60;;;34.10;51.40;;;;;;4918575;28;20028;-79
2021/06/27 08:21:57;;;;;;;6.53;6.03;;;34.40;50.40;;;;;;4982742;28;20049;-78
2021/06/27 08:24:23;;;;;;;7.38;6.72;;;34.60;49.70;;;;;;4916952;28;20032;-79
2021/06/27 08:26:50;;;;;;;6.60;6.00;;;34.60;50.50;;;;;;4924898;28;20032;-77
2021/06/27 08:29:16;;;;;;;6.88;5.65;;;35.00;49.80;;;;;;4986345;28;20411;-78
2021/06/27 08:31:41;;;;;;;8.55;5.80;;;35.10;49.10;;;;;;4916554;28;20031;-78
2021/06/27 08:34:07;;;;;;;6.13;5.63;;;34.70;48.50;;;;;;4986577;28;20043;-77
2021/06/27 08:36:32;;;;;;;8.52;7.65;;;35.10;50.00;;;;;;4946139;28;20038;-78
2021/06/27 08:38:58;;;;;;;6.55;6.05;;;35.60;47.50;;;;;;4938333;28;20044;-78
2021/06/27 08:41:23;;;;;;;7.82;6.78;;;35.80;48.10;;;;;;4999916;28;20063;-77
2021/06/27 08:43:49;;;;;;;6.40;5.88;;;35.80;47.80;;;;;;4923623;28;20432;-77
2021/06/27 08:46:15;;;;;;;9.00;6.95;;;35.90;46.80;;;;;;4901247;28;20035;-76
2021/06/27 08:48:41;;;;;;;9.30;6.22;;;36.00;47.40;;;;;;4931671;28;20024;-77
2021/06/27 08:51:07;;;;;;;6.75;5.78;;;36.30;45.20;;;;;;4944314;28;20104;-76
2021/06/27 08:53:34;;;;;;;7.15;6.55;;;36.30;46.30;;;;;;4936006;28;20035;-77
2021/06/27 08:56:06;;;;;;;7.50;6.68;;;36.50;45.60;;;;;;4941837;28;20040;-77
2021/06/27 08:58:39;;;;;;;6.85;6.25;;;36.80;44.40;;;;;;4980215;28;20072;-76
2021/06/27 09:01:07;;;;;;;7.28;6.13;;;36.70;45.40;;;;;;4943274;28;20026;-77
2021/06/27 09:03:32;;;;;;;8.95;6.75;;;36.90;45.00;;;;;;4918773;28;20032;-77
2021/06/27 09:05:58;;;;;;;7.35;6.63;;;37.00;44.60;;;;;;4982143;28;20063;-77
2021/06/27 09:08:24;;;;;;;8.07;6.35;;;37.10;43.70;;;;;;4979323;28;20131;-77
2021/06/27 09:10:50;;;;;;;8.38;6.72;;;37.10;42.20;;;;;;4915132;28;20344;-77
2021/06/27 09:13:15;;;;;;;8.32;6.20;;;37.00;42.10;;;;;;4943671;28;20055;-76
2021/06/27 09:15:53;;;;;;;6.70;6.10;;;36.90;43.20;;;;;;4975009;28;20487;-76
2021/06/27 09:18:19;;;;;;;6.47;5.88;;;36.80;43.00;;;;;;4914879;28;20339;-77
2021/06/27 09:20:46;;;;;;;7.15;6.57;;;36.80;42.60;;;;;;4937645;28;20119;-77
2021/06/27 09:23:12;;;;;;;6.43;5.82;;;36.80;42.60;;;;;;4930060;28;20599;-77
2021/06/27 09:25:38;;;;;;;6.50;6.00;;;36.70;42.20;;;;;;4910307;28;20107;-77
2021/06/27 09:28:06;;;;;;;6.72;6.15;;;36.70;42.70;;;;;;4990897;28;20126;-77
2021/06/27 09:30:34;;;;;;;6.57;5.97;;;36.70;41.80;;;;;;4915597;28;20594;-77
2021/06/27 09:33:03;;;;;;;7.25;6.65;;;36.60;42.50;;;;;;4935651;28;20131;-77
2021/06/27 09:35:50;;;;;;;7.85;5.85;;;36.60;42.90;;;;;;4910976;28;20385;-77
2021/06/27 09:38:23;;;;;;;8.45;6.28;;;36.60;42.80;;;;;;4931116;28;20373;-77
2021/06/27 09:40:50;;;;;;;8.35;7.03;;;36.70;42.30;;;;;;4925086;28;20036;-77
2021/06/27 09:43:16;;;;;;;6.47;5.88;;;36.80;41.60;;;;;;4945080;28;20399;-77
2021/06/27 09:46:14;;;;;;;7.70;7.03;;;36.80;42.20;;;;;;4972983;28;20039;-77
2021/06/27 09:49:15;;;;;;;6.78;6.25;;;36.90;41.50;;;;;;4937435;28;20353;-77
2021/06/27 09:52:09;;;;;;;6.72;6.25;;;36.90;40.80;;;;;;4961482;28;20032;-77
2021/06/27 09:54:35;;;;;;;6.95;6.43;;;37.00;40.70;;;;;;4947440;28;20082;-77
2021/06/27 09:57:01;;;;;;;6.22;5.78;;;37.00;40.50;;;;;;4948523;28;20046;-77
2021/06/27 09:59:34;;;;;;;7.35;6.72;;;36.80;41.60;;;;;;4988516;28;20032;-77
2021/06/27 10:01:59;;;;;;;8.07;6.28;;;36.90;40.50;;;;;;4951585;28;20060;-77
2021/06/27 10:04:32;;;;;;;8.50;6.38;;;36.90;41.10;;;;;;4910001;28;20552;-76
2021/06/27 10:07:02;;;;;;;7.55;6.47;;;37.00;40.70;;;;;;4927478;28;20416;-77
2021/06/27 10:09:31;;;;;;;5.60;5.20;;;36.90;41.40;;;;;;4919220;28;20035;-77
2021/06/27 10:12:06;;;;;;;6.40;5.90;;;37.00;41.90;;;;;;4929927;28;20038;-77
2021/06/27 10:14:51;;;;;;;7.40;5.68;;;37.30;40.80;;;;;;4997002;28;20040;-77
2021/06/27 10:17:17;;;;;;;6.57;6.05;;;37.50;40.20;;;;;;4916711;28;20036;-77
2021/06/27 10:19:43;;;;;;;5.65;5.25;;;37.60;39.20;;;;;;4921793;28;20033;-77
2021/06/27 10:22:08;;;;;;;5.78;5.32;;;37.50;40.50;;;;;;4903556;28;20515;-77
2021/06/27 10:24:34;;;;;;;6.57;5.93;;;37.80;40.20;;;;;;4910878;28;20040;-77
2021/06/27 10:27:00;;;;;;;6.20;5.70;;;37.90;40.20;;;;;;4924022;28;20043;-77
2021/06/27 10:29:25;;;;;;;5.40;5.00;;;38.00;39.50;;;;;;5002156;28;20034;-77
2021/06/27 10:31:52;;;;;;;7.32;5.68;;;38.20;39.50;;;;;;4902137;28;20038;-77
2021/06/27 10:34:18;;;;;;;6.03;5.53;;;38.30;39.20;;;;;;4921516;28;20032;-76
2021/06/27 10:36:45;;;;;;;5.65;4.63;;;38.40;38.90;;;;;;4941043;28;20836;-77
2021/06/27 10:39:14;;;;;;;6.20;5.57;;;38.50;40.00;;;;;;4973795;28;20495;-77
2021/06/27 10:41:59;;;;;;;6.10;5.50;;;38.60;38.80;;;;;;4921168;28;20032;-76
2021/06/27 10:44:48;;;;;;;6.40;5.80;;;38.80;37.50;;;;;;4962300;28;20040;-77
2021/06/27 10:47:29;;;;;;;5.72;5.10;;;38.80;38.40;;;;;;4930031;28;20499;-77
2021/06/27 10:49:55;;;;;;;5.60;5.20;;;38.90;37.60;;;;;;4958440;28;20507;-77
2021/06/27 10:52:21;;;;;;;5.22;4.72;;;39.00;38.50;;;;;;4933328;28;20123;-77
2021/06/27 10:55:13;;;;;;;5.07;4.57;;;39.10;37.30;;;;;;4940048;28;20063;-77
2021/06/27 10:57:56;;;;;;;5.22;4.82;;;39.00;38.40;;;;;;4920451;28;20044;-77
2021/06/27 11:00:22;;;;;;;5.20;4.80;;;39.10;38.40;;;;;;4916967;28;20036;-77
2021/06/27 11:02:48;;;;;;;5.17;4.70;;;39.00;37.70;;;;;;4244316;28;10000460;-77
2021/06/27 11:05:29;;;;;;;5.30;4.90;;;39.20;37.40;;;;;;4913776;28;20055;-76
2021/06/27 11:07:55;;;;;;;6.28;5.82;;;39.30;37.30;;;;;;4916576;28;20470;-76
2021/06/27 11:10:23;;;;;;;6.05;5.22;;;39.20;36.90;;;;;;4967663;28;20531;-76
2021/06/27 11:13:01;;;;;;;5.10;4.70;;;39.30;36.10;;;;;;4918462;28;20040;-76
2021/06/27 11:15:26;;;;;;;5.53;4.88;;;39.30;36.50;;;;;;4929691;28;20042;-76
2021/06/27 11:17:56;;;;;;;5.95;5.45;;;39.30;37.50;;;;;;4927497;28;20501;-76
2021/06/27 11:20:21;;;;;;;6.55;6.10;;;39.50;36.50;;;;;;4929187;28;20143;-76
2021/06/27 11:22:48;;;;;;;5.90;4.95;;;39.80;36.10;;;;;;4930357;28;20118;-75
2021/06/27 11:25:32;;;;;;;4.95;4.55;;;40.10;36.00;;;;;;4904431;28;20043;-75
2021/06/27 11:27:57;;;;;;;5.80;4.80;;;40.30;35.70;;;;;;4931570;28;20044;-75
2021/06/27 11:30:29;;;;;;;5.07;4.63;;;40.40;34.40;;;;;;4917093;28;20400;-76
2021/06/27 11:32:55;;;;;;;6.65;5.05;;;40.70;35.60;;;;;;4915655;28;20024;-76
2021/06/27 11:35:40;;;;;;;5.45;5.05;;;40.90;34.50;;;;;;4963977;28;20051;-76
2021/06/27 11:38:06;;;;;;;5.57;5.07;;;41.00;34.90;;;;;;4907938;28;20489;-76
2021/06/27 11:40:48;;;;;;;5.40;5.00;;;41.10;34.30;;;;;;4934707;28;20042;-77
2021/06/27 11:43:13;;;;;;;5.38;4.90;;;41.30;33.40;;;;;;4903477;28;20052;-77
2021/06/27 11:45:43;;;;;;;4.93;4.50;;;41.50;34.10;;;;;;4907717;28;20568;-76
2021/06/27 11:48:09;;;;;;;4.47;4.13;;;41.30;33.10;;;;;;4906584;28;20040;-77
2021/06/27 11:50:38;;;;;;;5.18;4.78;;;41.40;32.50;;;;;;4923190;28;20050;-77
2021/06/27 11:53:10;;;;;;;4.15;3.85;;;41.40;31.70;;;;;;4917895;28;20078;-77
2021/06/27 11:55:44;;;;;;;4.30;4.00;;;41.20;33.60;;;;;;4903215;28;20040;-77
2021/06/27 11:58:18;;;;;;;4.40;4.00;;;41.20;33.90;;;;;;4946467;28;20030;-77
2021/06/27 12:00:45;;;;;;;4.70;4.32;;;41.20;33.80;;;;;;4902663;28;20036;-77
2021/06/27 12:03:22;;;;;;;4.95;4.55;;;41.60;32.00;;;;;;4941848;28;20396;-76
2021/06/27 12:05:57;;;;;;;5.10;4.70;;;41.70;32.20;;;;;;4913682;28;20488;-77
2021/06/27 12:08:23;;;;;;;4.65;4.25;;;41.90;32.50;;;;;;4927124;28;20485;-77
2021/06/27 12:10:52;;;;;;;4.72;4.03;;;41.90;31.90;;;;;;4911201;28;20408;-77
2021/06/27 12:13:17;;;;;;;3.30;3.10;;;41.90;32.90;;;;;;4930962;28;20044;-76
2021/06/27 12:15:48;;;;;;;4.35;3.80;;;41.80;32.80;;;;;;4971220;28;20094;-77
2021/06/27 12:18:15;;;;;;;4.00;3.70;;;41.90;33.30;;;;;;4982153;28;20047;-78
2021/06/27 12:20:46;;;;;;;4.53;4.15;;;41.90;32.20;;;;;;4903072;28;20048;-77
2021/06/27 12:23:33;;;;;;;4.95;4.65;;;41.70;33.40;;;;;;4930156;28;20043;-77
2021/06/27 12:26:04;;;;;;;4.70;4.40;;;42.20;31.40;;;;;;4934405;28;20032;-77
2021/06/27 12:28:37;;;;;;;4.05;3.75;;;42.30;31.20;;;;;;4940052;28;20088;-77
2021/06/27 12:31:18;;;;;;;4.30;4.00;;;42.30;31.20;;;;;;4941743;28;20031;-77
2021/06/27 12:33:48;;;;;;;4.40;4.10;;;42.40;30.80;;;;;;4935103;28;20435;-77
2021/06/27 12:36:23;;;;;;;4.88;4.28;;;42.40;30.10;;;;;;4899796;28;20131;-77
2021/06/27 12:38:50;;;;;;;5.25;4.80;;;42.40;30.30;;;;;;4922054;28;20043;-77
2021/06/27 12:41:29;;;;;;;5.53;5.10;;;42.50;30.20;;;;;;4904507;28;20542;-77
2021/06/27 12:43:56;;;;;;;4.88;4.30;;;42.70;30.00;;;;;;4941598;28;20036;-76
2021/06/27 12:46:23;;;;;;;5.28;3.97;;;42.70;30.50;;;;;;4984891;28;20042;-76
2021/06/27 12:49:09;;;;;;;5.28;4.70;;;42.70;30.00;;;;;;4932497;28;20492;-76